createdAt,value
2018-10-19T00:00:51.165Z,63.90
2018-10-19T00:03:19.606Z,62.67
2018-10-19T00:05:47.945Z,70.30
2018-10-19T00:08:16.569Z,63.87
2018-10-19T00:10:44.882Z,70.73
2018-10-19T00:13:13.185Z,68.13
2018-10-19T00:15:41.490Z,63.13
2018-10-19T00:18:09.859Z,66.07
2018-10-19T00:20:38.204Z,62.97
2018-10-19T00:23:06.682Z,69.60
2018-10-19T00:25:34.936Z,69.20
2018-10-19T00:28:03.303Z,70.37
2018-10-19T00:30:32.086Z,70.27
2018-10-19T00:33:00.453Z,67.67
2018-10-19T00:35:28.783Z,62.20
2018-10-19T00:37:57.192Z,65.47
2018-10-19T00:40:25.506Z,65.43
2018-10-19T00:42:53.813Z,70.87
2018-10-19T00:45:52.810Z,70.17
2018-10-19T00:48:21.348Z,77.17
2018-10-19T00:50:49.643Z,83.80
2018-10-19T00:53:21.416Z,83.10
2018-10-19T00:55:49.718Z,82.97
2018-10-19T00:58:18.016Z,79.87
2018-10-19T01:00:46.405Z,81.27
2018-10-19T01:03:14.788Z,84.27
2018-10-19T01:05:43.056Z,82.80
2018-10-19T01:08:11.640Z,80.30
2018-10-19T01:10:40.017Z,84.33
2018-10-19T01:13:08.402Z,82.93
2018-10-19T01:15:36.708Z,85.50
2018-10-19T01:18:05.232Z,84.70
2018-10-19T01:20:33.544Z,90.73
2018-10-19T01:23:01.900Z,86.37
2018-10-19T01:25:30.206Z,82.80
2018-10-19T01:27:58.593Z,83.37
2018-10-19T01:30:26.900Z,85.07
2018-10-19T01:32:55.203Z,79.70
2018-10-19T01:35:23.661Z,86.57
2018-10-19T01:37:51.998Z,95.07
2018-10-19T01:40:20.299Z,92.50
2018-10-19T01:42:48.655Z,90.37
2018-10-19T01:45:16.955Z,93.07
2018-10-19T01:47:45.281Z,105.00
2018-10-19T01:50:13.565Z,97.00
2018-10-19T01:52:42.022Z,98.10
2018-10-19T01:55:10.321Z,97.37
2018-10-19T01:57:38.650Z,102.57
2018-10-19T02:00:07.518Z,102.87
2018-10-19T02:02:35.902Z,94.57
2018-10-19T02:05:04.407Z,99.73
2018-10-19T02:07:32.661Z,96.40
2018-10-19T02:10:00.985Z,94.93
2018-10-19T02:12:29.436Z,96.67
2018-10-19T02:14:57.887Z,99.87
2018-10-19T02:17:26.404Z,98.13
2018-10-19T02:20:01.003Z,96.90
2018-10-19T02:22:30.181Z,107.63
2018-10-19T02:24:58.593Z,103.90
2018-10-19T02:27:26.988Z,108.43
2018-10-19T02:29:55.320Z,106.30
2018-10-19T02:32:23.622Z,109.27
2018-10-19T02:34:51.868Z,117.57
2018-10-19T02:37:20.187Z,113.67
2018-10-19T02:39:48.511Z,107.23
2018-10-19T02:42:16.904Z,119.23
2018-10-19T02:44:45.127Z,116.00
2018-10-19T02:47:13.559Z,114.50
2018-10-19T02:49:41.860Z,110.77
2018-10-19T02:52:10.195Z,109.40
2018-10-19T02:54:38.471Z,114.60
2018-10-19T02:57:07.370Z,106.27
2018-10-19T02:59:35.740Z,109.37
2018-10-19T03:02:04.224Z,109.47
2018-10-19T03:04:32.566Z,111.60
2018-10-19T03:07:01.577Z,114.87
2018-10-19T03:09:30.052Z,101.73
2018-10-19T03:11:58.463Z,112.03
2018-10-19T03:14:26.957Z,110.13
2018-10-19T03:16:55.246Z,115.57
2018-10-19T03:19:24.293Z,122.67
2018-10-19T03:21:52.654Z,125.10
2018-10-19T03:24:21.444Z,122.17
2018-10-19T03:26:49.741Z,128.90
2018-10-19T03:29:18.114Z,117.63
2018-10-19T03:31:46.344Z,121.10
2018-10-19T03:34:14.640Z,110.63
2018-10-19T03:36:42.903Z,114.83
2018-10-19T03:39:11.299Z,120.80
2018-10-19T03:41:39.581Z,121.70
2018-10-19T03:44:07.942Z,117.33
2018-10-19T03:46:36.666Z,114.20
2018-10-19T03:49:05.524Z,113.50
2018-10-19T03:51:33.924Z,126.23
2018-10-19T03:54:02.440Z,120.93
2018-10-19T03:56:30.730Z,128.23
2018-10-19T03:58:59.012Z,136.20
2018-10-19T04:01:27.614Z,136.57
2018-10-19T04:03:56.022Z,126.60
2018-10-19T04:06:24.603Z,137.20
2018-10-19T04:08:52.932Z,145.63
2018-10-19T04:11:21.204Z,145.83
2018-10-19T04:13:49.506Z,144.10
2018-10-19T04:16:18.011Z,145.43
2018-10-19T04:18:46.423Z,140.63
2018-10-19T04:21:14.953Z,134.27
2018-10-19T04:23:43.416Z,136.83
2018-10-19T04:26:11.757Z,131.47
2018-10-19T04:28:40.066Z,132.63
2018-10-19T04:31:08.575Z,131.27
2018-10-19T04:33:37.230Z,141.83
2018-10-19T04:36:05.879Z,136.50
2018-10-19T04:38:34.194Z,140.27
2018-10-19T04:41:02.567Z,151.23
2018-10-19T04:43:31.204Z,148.70
2018-10-19T04:45:59.706Z,141.53
2018-10-19T04:48:28.111Z,140.20
2018-10-19T04:50:56.493Z,152.87
2018-10-19T04:53:24.727Z,150.37
2018-10-19T04:55:53.063Z,158.97
2018-10-19T04:58:21.432Z,161.00
2018-10-19T05:00:49.660Z,159.77
2018-10-19T05:03:18.077Z,150.07
2018-10-19T05:05:46.366Z,157.87
2018-10-19T05:08:14.759Z,159.77
2018-10-19T05:10:43.302Z,187.67
2018-10-19T05:13:11.653Z,171.50
2018-10-19T05:15:39.897Z,170.97
2018-10-19T05:18:08.428Z,170.97
2018-10-19T05:20:36.871Z,159.23
2018-10-19T05:23:05.590Z,163.20
2018-10-19T05:25:33.971Z,161.73
2018-10-19T05:28:02.191Z,155.03
2018-10-19T05:30:30.510Z,164.60
2018-10-19T05:32:58.863Z,171.17
2018-10-19T05:35:27.080Z,164.53
2018-10-19T05:37:55.363Z,172.73
2018-10-19T05:40:23.831Z,180.30
2018-10-19T05:42:52.268Z,202.03
2018-10-19T05:45:20.697Z,165.53
2018-10-19T05:47:49.009Z,165.03
2018-10-19T05:50:17.475Z,140.03
2018-10-19T05:52:46.860Z,135.67
2018-10-19T05:55:15.252Z,148.23
2018-10-19T05:57:43.587Z,154.90
2018-10-19T06:00:12.651Z,175.07
2018-10-19T06:02:41.142Z,139.93
2018-10-19T06:05:09.994Z,153.03
2018-10-19T06:07:38.218Z,154.37
2018-10-19T06:10:07.268Z,188.67
2018-10-19T06:12:35.702Z,152.17
2018-10-19T06:15:04.395Z,155.90
2018-10-19T06:17:32.783Z,149.37
2018-10-19T06:20:01.569Z,166.10
2018-10-19T06:22:29.760Z,170.90
2018-10-19T06:24:58.259Z,153.23
2018-10-19T06:27:26.627Z,156.63
2018-10-19T06:29:55.005Z,160.80
2018-10-19T06:32:23.375Z,158.10
2018-10-19T06:34:51.674Z,154.83
2018-10-19T06:37:19.987Z,164.73
2018-10-19T06:39:48.524Z,169.17
2018-10-19T06:42:18.030Z,140.97
2018-10-19T06:44:46.376Z,134.50
2018-10-19T06:47:14.791Z,126.67
2018-10-19T06:49:43.125Z,126.20
2018-10-19T06:52:11.339Z,132.20
2018-10-19T06:54:39.679Z,133.50
2018-10-19T06:57:07.944Z,141.20
2018-10-19T06:59:36.422Z,127.63
2018-10-19T07:02:04.975Z,133.17
2018-10-19T07:04:33.302Z,142.17
2018-10-19T07:07:01.643Z,130.60
2018-10-19T07:09:30.014Z,129.63
2018-10-19T07:11:58.329Z,122.70
2018-10-19T07:14:26.646Z,129.43
2018-10-19T07:16:54.919Z,126.53
2018-10-19T07:19:23.293Z,118.03
2018-10-19T07:21:51.637Z,122.47
2018-10-19T07:24:20.058Z,131.27
2018-10-19T07:26:48.363Z,127.03
2018-10-19T07:29:16.865Z,129.33
2018-10-19T07:31:45.168Z,127.57
2018-10-19T07:34:13.480Z,137.60
2018-10-19T07:36:42.238Z,109.83
2018-10-19T07:39:10.695Z,101.57
2018-10-19T07:41:39.085Z,90.80
2018-10-19T07:44:07.741Z,91.60
2018-10-19T07:46:36.190Z,102.33
2018-10-19T07:49:04.583Z,99.90
2018-10-19T07:51:32.907Z,93.23
2018-10-19T07:54:01.502Z,97.77
2018-10-19T07:56:29.776Z,87.03
2018-10-19T07:58:58.072Z,93.17
2018-10-19T08:01:26.384Z,95.00
2018-10-19T08:03:54.677Z,93.13
2018-10-19T08:06:23.037Z,91.27
2018-10-19T08:08:51.349Z,88.50
2018-10-19T08:11:19.765Z,96.07
2018-10-19T08:13:48.091Z,127.73
2018-10-19T08:16:17.102Z,115.90
2018-10-19T08:18:45.510Z,114.43
2018-10-19T08:21:14.013Z,107.17
2018-10-19T08:23:42.253Z,118.87
2018-10-19T08:26:10.577Z,109.37
2018-10-19T08:28:38.839Z,135.83
2018-10-19T08:31:07.445Z,121.93
2018-10-19T08:33:35.717Z,117.77
2018-10-19T08:36:04.381Z,117.07
2018-10-19T08:38:32.830Z,109.73
2018-10-19T08:41:01.237Z,111.97
2018-10-19T08:43:31.064Z,113.57
2018-10-19T08:46:03.687Z,111.27
2018-10-19T08:48:32.133Z,100.70
2018-10-19T08:51:00.552Z,102.00
2018-10-19T08:53:29.236Z,98.03
2018-10-19T08:55:57.658Z,98.93
2018-10-19T08:58:26.202Z,96.53
2018-10-19T09:00:54.356Z,95.70
2018-10-19T09:03:22.663Z,88.43
2018-10-19T09:05:51.039Z,96.60
2018-10-19T09:08:19.326Z,102.97
2018-10-19T09:10:47.590Z,89.77
2018-10-19T09:13:15.923Z,93.67
2018-10-19T09:15:45.321Z,89.20
2018-10-19T09:18:13.868Z,91.50
2018-10-19T09:20:42.275Z,90.80
2018-10-19T09:23:12.837Z,87.67
2018-10-19T09:25:41.126Z,96.57
2018-10-19T09:28:09.608Z,83.90
2018-10-19T09:30:37.939Z,92.17
2018-10-19T09:33:06.752Z,90.37
2018-10-19T09:35:38.843Z,90.33
2018-10-19T09:38:07.249Z,90.23
2018-10-19T09:40:35.567Z,91.47
2018-10-19T09:43:04.124Z,93.23
2018-10-19T09:45:32.581Z,85.93
2018-10-19T09:48:00.992Z,90.40
2018-10-19T09:50:29.313Z,87.20
2018-10-19T09:52:57.668Z,87.30
2018-10-19T09:55:25.960Z,86.10
2018-10-19T09:57:54.470Z,85.67
2018-10-19T10:00:28.048Z,86.93
2018-10-19T10:02:56.532Z,81.97
2018-10-19T10:05:24.931Z,84.50
2018-10-19T10:07:53.611Z,81.80
2018-10-19T10:10:24.547Z,87.63
2018-10-19T10:12:53.163Z,87.37
2018-10-19T10:15:21.759Z,83.67
2018-10-19T10:17:50.065Z,82.83
2018-10-19T10:20:19.334Z,84.93
2018-10-19T10:22:47.823Z,85.10
2018-10-19T10:25:16.153Z,76.33
2018-10-19T10:27:44.481Z,83.37
2018-10-19T10:30:12.885Z,83.83
2018-10-19T10:32:41.830Z,84.43
2018-10-19T10:35:10.507Z,85.13
2018-10-19T10:37:38.993Z,83.17
2018-10-19T10:40:07.726Z,84.90
2018-10-19T10:42:36.020Z,82.30
2018-10-19T10:45:04.552Z,81.07
2018-10-19T10:47:32.962Z,83.47
2018-10-19T10:50:01.935Z,86.30
2018-10-19T10:52:30.296Z,81.70
2018-10-19T10:54:58.674Z,80.40
2018-10-19T10:57:26.955Z,84.60
2018-10-19T10:59:55.328Z,84.13
2018-10-19T11:02:23.697Z,82.73
2018-10-19T11:04:52.094Z,85.40
2018-10-19T11:07:20.664Z,83.93
2018-10-19T11:09:48.782Z,88.43
2018-10-19T11:12:17.121Z,75.13
2018-10-19T11:14:45.489Z,81.10
2018-10-19T11:17:13.844Z,75.07
2018-10-19T11:19:43.127Z,81.17
2018-10-19T11:22:11.532Z,69.33
2018-10-19T11:24:39.864Z,80.63
2018-10-19T11:27:08.193Z,78.00
2018-10-19T11:29:36.812Z,76.07
2018-10-19T11:32:06.105Z,76.43
2018-10-19T11:34:34.597Z,81.27
2018-10-19T11:37:03.449Z,80.87
2018-10-19T11:39:31.751Z,79.33
2018-10-19T11:42:00.021Z,81.63
2018-10-19T11:44:28.453Z,75.30
2018-10-19T11:47:00.029Z,76.73
2018-10-19T11:49:28.951Z,75.03
2018-10-19T11:51:57.304Z,61.47
2018-10-19T11:54:25.659Z,68.47
2018-10-19T11:56:53.936Z,64.03
2018-10-19T11:59:22.546Z,63.23
2018-10-19T12:01:50.905Z,69.30
2018-10-19T12:04:19.368Z,65.73
2018-10-19T12:06:47.898Z,65.97
2018-10-19T12:09:16.402Z,66.50
2018-10-19T12:11:44.765Z,63.73
2018-10-19T12:14:13.239Z,59.77
2018-10-19T12:16:41.724Z,63.07
2018-10-19T12:19:10.163Z,62.10
2018-10-19T12:21:40.949Z,66.70
2018-10-19T12:24:09.548Z,60.87
2018-10-19T12:26:38.063Z,62.67
2018-10-19T12:29:06.434Z,63.83
2018-10-19T12:31:35.310Z,63.35
2018-10-19T12:34:04.091Z,63.90
2018-10-19T12:36:34.393Z,58.13
2018-10-19T12:39:02.866Z,59.55
2018-10-19T12:41:31.335Z,63.58
2018-10-19T12:43:59.688Z,68.22
2018-10-19T12:46:40.502Z,59.25
2018-10-19T12:49:09.431Z,59.70
2018-10-19T12:51:38.123Z,65.62
2018-10-19T12:54:06.870Z,66.30
2018-10-19T12:56:35.428Z,68.52
2018-10-19T12:59:03.933Z,60.73
2018-10-19T13:01:33.412Z,63.13
2018-10-19T13:04:02.478Z,62.25
2018-10-19T13:06:30.913Z,57.95
2018-10-19T13:08:59.501Z,64.10
2018-10-19T13:11:28.160Z,56.15
2018-10-19T13:13:56.585Z,57.38
2018-10-19T13:16:25.065Z,58.98
2018-10-19T13:18:53.690Z,53.23
2018-10-19T13:21:22.231Z,57.43
2018-10-19T13:23:50.627Z,54.23
2018-10-19T13:26:19.069Z,59.85
2018-10-19T13:28:47.407Z,54.80
2018-10-19T13:31:15.891Z,55.78
2018-10-19T13:33:44.207Z,72.40
2018-10-19T13:36:12.703Z,55.00
2018-10-19T13:38:41.015Z,55.50
2018-10-19T13:41:09.431Z,55.48
2018-10-19T13:43:38.158Z,56.80
2018-10-19T13:46:06.495Z,55.45
2018-10-19T13:48:35.130Z,50.48
2018-10-19T13:51:03.507Z,52.65
2018-10-19T13:53:31.856Z,62.13
2018-10-19T13:56:00.257Z,59.33
2018-10-19T13:58:28.785Z,57.33
2018-10-19T14:00:57.178Z,61.68
2018-10-19T14:03:25.618Z,52.50
2018-10-19T14:05:54.048Z,60.30
2018-10-19T14:08:22.408Z,51.30
2018-10-19T14:10:50.853Z,55.70
2018-10-19T14:13:19.328Z,53.48
2018-10-19T14:15:47.933Z,59.42
2018-10-19T14:18:16.293Z,58.92
2018-10-19T14:20:44.608Z,54.23
2018-10-19T14:23:12.952Z,49.75
2018-10-19T14:25:41.739Z,61.83
2018-10-19T14:28:10.090Z,62.90
2018-10-19T14:30:38.504Z,56.60
2018-10-19T14:33:06.904Z,55.10
2018-10-19T14:35:35.270Z,56.65
2018-10-19T14:38:04.092Z,60.30
2018-10-19T14:40:32.570Z,53.90
2018-10-19T14:43:01.096Z,53.20
2018-10-19T14:45:29.529Z,57.10
2018-10-19T14:47:57.983Z,59.55
2018-10-19T14:50:26.332Z,61.77
2018-10-19T14:52:54.709Z,60.88
2018-10-19T14:55:23.282Z,62.08
2018-10-19T14:57:51.604Z,59.67
2018-10-19T15:00:20.032Z,58.25
2018-10-19T15:02:48.428Z,55.83
2018-10-19T15:05:18.348Z,64.70
2018-10-19T15:07:46.822Z,56.88
2018-10-19T15:10:17.997Z,62.13
2018-10-19T15:12:46.378Z,58.95
2018-10-19T15:15:22.439Z,51.65
2018-10-19T15:17:50.907Z,60.83
2018-10-19T15:20:19.543Z,57.25
2018-10-19T15:22:48.093Z,50.12
2018-10-19T15:25:16.479Z,58.35
2018-10-19T15:27:45.936Z,62.60
2018-10-19T15:30:16.993Z,61.33
2018-10-19T15:32:45.350Z,57.05
2018-10-19T15:35:13.605Z,40.30
2018-10-19T15:37:42.178Z,48.57
2018-10-19T15:40:11.172Z,54.40
2018-10-19T15:42:39.948Z,56.13
2018-10-19T15:45:10.145Z,55.03
2018-10-19T15:47:38.446Z,48.30
2018-10-19T15:50:07.573Z,56.77
2018-10-19T15:52:35.907Z,57.63
2018-10-19T15:55:04.437Z,62.03
2018-10-19T15:57:32.823Z,55.33
2018-10-19T16:00:01.190Z,61.80
2018-10-19T16:02:29.408Z,59.03
2018-10-19T16:04:57.862Z,60.80
2018-10-19T16:07:26.201Z,61.20
2018-10-19T16:09:54.867Z,62.77
2018-10-19T16:12:23.149Z,66.03
2018-10-19T16:14:51.561Z,59.13
2018-10-19T16:17:19.989Z,59.13
2018-10-19T16:19:49.000Z,60.60
2018-10-19T16:22:17.333Z,60.67
2018-10-19T16:24:45.659Z,71.90
2018-10-19T16:27:14.094Z,59.40
2018-10-19T16:29:42.330Z,62.17
2018-10-19T16:32:10.708Z,57.37
2018-10-19T16:34:39.263Z,62.57
2018-10-19T16:37:07.493Z,66.77
2018-10-19T16:39:35.784Z,69.07
2018-10-19T16:42:04.351Z,65.80
2018-10-19T16:44:32.667Z,63.60
2018-10-19T16:47:01.113Z,72.13
2018-10-19T16:49:29.401Z,70.37
2018-10-19T16:51:57.693Z,71.83
2018-10-19T16:54:26.046Z,71.43
2018-10-19T16:56:54.380Z,69.07
2018-10-19T16:59:22.646Z,68.27
2018-10-19T17:01:53.775Z,70.33
2018-10-19T17:04:22.218Z,76.07
2018-10-19T17:06:50.828Z,72.33
2018-10-19T17:09:19.865Z,76.43
2018-10-19T17:11:48.361Z,75.70
2018-10-19T17:14:17.027Z,75.37
2018-10-19T17:16:52.387Z,72.93
2018-10-19T17:19:20.981Z,79.50
2018-10-19T17:21:51.131Z,72.20
2018-10-19T17:24:20.644Z,78.27
2018-10-19T17:26:50.052Z,78.53
2018-10-19T17:29:21.072Z,75.27
2018-10-19T17:31:50.203Z,78.73
2018-10-19T17:34:20.068Z,75.20
2018-10-19T17:36:49.401Z,79.03
2018-10-19T17:39:18.102Z,77.47
2018-10-19T17:41:52.656Z,79.73
2018-10-19T17:44:21.575Z,79.60
2018-10-19T17:46:51.681Z,79.73
2018-10-19T17:49:20.387Z,86.67
2018-10-19T17:51:49.445Z,78.37
2018-10-19T17:54:19.664Z,81.57
2018-10-19T17:56:52.479Z,88.77
2018-10-19T17:59:20.905Z,84.17
2018-10-19T18:01:49.327Z,85.10
2018-10-19T18:04:17.786Z,83.97
2018-10-19T18:06:47.880Z,86.60
2018-10-19T18:09:16.373Z,81.20
2018-10-19T18:11:45.346Z,90.07
2018-10-19T18:14:13.813Z,89.53
2018-10-19T18:16:42.403Z,84.90
2018-10-19T18:19:20.437Z,90.87
2018-10-19T18:21:49.015Z,87.87
2018-10-19T18:24:17.387Z,89.50
2018-10-19T18:26:46.052Z,91.23
2018-10-19T18:29:14.857Z,85.80
2018-10-19T18:31:43.912Z,89.90
2018-10-19T18:34:12.804Z,92.63
2018-10-19T18:36:41.470Z,89.03
2018-10-19T18:39:13.081Z,93.93
2018-10-19T18:41:42.476Z,93.07
2018-10-19T18:44:12.092Z,93.93
2018-10-19T18:46:40.727Z,99.83
2018-10-19T18:49:09.274Z,109.80
2018-10-19T18:51:39.864Z,97.47
2018-10-19T18:54:10.934Z,107.93
2018-10-19T18:56:40.704Z,96.60
2018-10-19T18:59:11.594Z,92.40
2018-10-19T19:01:46.751Z,96.60
2018-10-19T19:04:15.283Z,102.57
2018-10-19T19:06:44.701Z,97.07
2018-10-19T19:09:18.625Z,101.27
2018-10-19T19:11:48.393Z,94.63
2018-10-19T19:14:17.012Z,94.47
2018-10-19T19:16:45.927Z,97.17
2018-10-19T19:19:16.248Z,102.37
2018-10-19T19:21:48.770Z,102.37
2018-10-19T19:24:23.417Z,96.37
2018-10-19T19:26:52.008Z,93.50
2018-10-19T19:29:22.503Z,98.27
2018-10-19T19:31:51.203Z,93.53
2018-10-19T19:34:22.949Z,89.83
2018-10-19T19:36:51.888Z,95.07
2018-10-19T19:39:20.248Z,97.03
2018-10-19T19:41:53.979Z,101.37
2018-10-19T19:44:22.459Z,99.07
2018-10-19T19:46:51.026Z,98.57
2018-10-19T19:49:24.938Z,105.57
2018-10-19T19:51:53.643Z,99.47
2018-10-19T19:54:22.171Z,106.03
2018-10-19T19:56:50.889Z,110.53
2018-10-19T19:59:20.802Z,102.83
2018-10-19T20:01:50.353Z,107.50
2018-10-19T20:04:19.005Z,109.90
2018-10-19T20:06:48.197Z,114.83
2018-10-19T20:09:17.029Z,118.43
2018-10-19T20:11:46.315Z,108.67
2018-10-19T20:14:16.058Z,104.50
2018-10-19T20:16:44.916Z,109.80
2018-10-19T20:19:13.526Z,110.13
2018-10-19T20:21:42.560Z,108.07
2018-10-19T20:24:36.942Z,104.27
2018-10-19T20:27:07.050Z,111.83
2018-10-19T20:29:36.704Z,118.13
2018-10-19T20:32:07.107Z,129.20
2018-10-19T20:37:13.089Z,122.20
2018-10-19T20:39:41.547Z,119.20
2018-10-19T20:42:10.250Z,119.20
2018-10-19T20:44:39.600Z,114.07
2018-10-19T20:47:08.122Z,116.03
2018-10-19T20:49:36.662Z,111.30
2018-10-19T20:52:05.153Z,117.87
2018-10-19T20:54:33.785Z,123.27
2018-10-19T20:57:02.054Z,122.00
2018-10-19T20:59:34.150Z,119.07
2018-10-19T21:02:03.583Z,117.53
2018-10-19T21:04:32.164Z,118.80
2018-10-19T21:07:00.568Z,121.60
2018-10-19T21:09:29.169Z,132.00
2018-10-19T21:11:57.514Z,119.70
2018-10-19T21:14:25.873Z,124.67
2018-10-19T21:16:54.496Z,119.50
2018-10-19T21:19:23.001Z,117.20
2018-10-19T21:21:51.495Z,127.00
2018-10-19T21:24:19.865Z,124.40
2018-10-19T21:26:48.190Z,121.90
2018-10-19T21:29:16.677Z,124.37
2018-10-19T21:31:45.339Z,118.67
2018-10-19T21:34:13.766Z,139.70
2018-10-19T21:36:42.618Z,124.93
2018-10-19T21:39:13.123Z,131.17
2018-10-19T21:41:43.521Z,146.20
2018-10-19T21:44:11.983Z,137.23
2018-10-19T21:46:40.322Z,138.47
2018-10-19T21:49:08.650Z,142.17
2018-10-19T21:51:36.986Z,139.20
2018-10-19T21:54:05.822Z,140.23
2018-10-19T21:56:34.290Z,136.07
2018-10-19T21:59:03.031Z,137.57
2018-10-19T22:01:31.982Z,136.33
2018-10-19T22:04:00.495Z,130.30
2018-10-19T22:06:28.917Z,128.80
2018-10-19T22:08:57.256Z,139.67
2018-10-19T22:11:25.668Z,135.77
2018-10-19T22:13:54.115Z,139.80
2018-10-19T22:16:22.990Z,150.30
2018-10-19T22:18:51.496Z,144.17
2018-10-19T22:21:20.153Z,141.27
2018-10-19T22:23:49.388Z,136.53
2018-10-19T22:26:17.827Z,144.23
2018-10-19T22:28:46.151Z,139.23
2018-10-19T22:31:14.588Z,145.87
2018-10-19T22:33:42.968Z,142.30
2018-10-19T22:36:11.299Z,138.07
2018-10-19T22:38:39.790Z,141.83
2018-10-19T22:41:08.498Z,135.03
2018-10-19T22:43:36.788Z,131.53
2018-10-19T22:46:05.175Z,132.47
2018-10-19T22:48:33.544Z,131.33
2018-10-19T22:51:02.200Z,132.33
2018-10-19T22:53:30.484Z,127.77
2018-10-19T22:55:58.825Z,132.17
2018-10-19T22:58:27.131Z,136.83
2018-10-19T23:00:55.578Z,130.63
2018-10-19T23:03:23.907Z,132.00
2018-10-19T23:05:52.238Z,139.57
2018-10-19T23:08:20.556Z,139.37
2018-10-19T23:10:49.679Z,141.33
2018-10-19T23:13:18.007Z,133.30
2018-10-19T23:15:46.315Z,136.90
2018-10-19T23:18:14.609Z,137.83
2018-10-19T23:20:42.972Z,131.57
2018-10-19T23:23:11.378Z,136.57
2018-10-19T23:25:39.696Z,140.60
2018-10-19T23:28:08.065Z,135.57
2018-10-19T23:30:36.424Z,135.23
2018-10-19T23:33:05.588Z,130.80
2018-10-19T23:35:34.040Z,128.87
2018-10-19T23:38:02.419Z,138.53
2018-10-19T23:40:30.834Z,132.47
2018-10-19T23:42:59.187Z,134.13
2018-10-19T23:45:27.732Z,141.50
2018-10-19T23:47:56.011Z,145.27
2018-10-19T23:50:24.337Z,150.77
2018-10-19T23:52:52.678Z,157.80
2018-10-19T23:55:20.890Z,165.90
2018-10-19T23:57:49.240Z,152.77
